createdAt,value
2019-02-12T00:01:48.682Z,0.90
2019-02-12T00:04:17.488Z,1.40
2019-02-12T00:06:46.207Z,1.20
2019-02-12T00:09:15.123Z,0.53
2019-02-12T00:11:43.824Z,0.70
2019-02-12T00:14:12.628Z,1.27
2019-02-12T00:16:41.344Z,0.87
2019-02-12T00:19:10.058Z,0.87
2019-02-12T00:21:38.758Z,0.80
2019-02-12T00:24:07.621Z,0.57
2019-02-12T00:26:36.422Z,0.80
2019-02-12T00:29:05.115Z,0.73
2019-02-12T00:31:33.921Z,0.93
2019-02-12T00:34:02.664Z,0.93
2019-02-12T00:36:31.367Z,0.73
2019-02-12T00:39:00.079Z,0.97
2019-02-12T00:41:28.855Z,1.07
2019-02-12T00:43:57.575Z,1.20
2019-02-12T00:46:26.285Z,1.57
2019-02-12T00:48:55.023Z,1.23
2019-02-12T00:51:23.803Z,1.07
2019-02-12T00:53:52.539Z,0.57
2019-02-12T00:56:21.333Z,0.60
2019-02-12T00:58:50.360Z,1.30
2019-02-12T01:01:19.173Z,0.90
2019-02-12T01:03:47.987Z,0.80
2019-02-12T01:06:16.677Z,0.90
2019-02-12T01:08:45.393Z,0.83
2019-02-12T01:11:14.206Z,0.90
2019-02-12T01:13:43.009Z,1.17
2019-02-12T01:16:11.709Z,0.70
2019-02-12T01:18:40.435Z,0.90
2019-02-12T01:21:09.123Z,0.70
2019-02-12T01:23:37.855Z,0.77
2019-02-12T01:26:06.601Z,0.70
2019-02-12T01:28:35.421Z,0.80
2019-02-12T01:31:04.213Z,1.30
2019-02-12T01:33:33.018Z,0.60
2019-02-12T01:36:01.893Z,0.87
2019-02-12T01:38:30.642Z,0.60
2019-02-12T01:40:59.426Z,1.00
2019-02-12T01:43:28.241Z,1.00
2019-02-12T01:45:56.939Z,1.73
2019-02-12T01:48:25.677Z,0.80
2019-02-12T01:50:54.623Z,0.60
2019-02-12T01:53:23.362Z,0.60
2019-02-12T01:55:52.096Z,0.90
2019-02-12T01:58:20.851Z,1.20
2019-02-12T02:00:49.843Z,0.60
2019-02-12T02:03:18.569Z,0.93
2019-02-12T02:05:47.384Z,0.70
2019-02-12T02:08:16.177Z,0.93
2019-02-12T02:10:44.963Z,1.07
2019-02-12T02:13:13.711Z,0.80
2019-02-12T02:15:42.459Z,0.83
2019-02-12T02:18:11.251Z,1.10
2019-02-12T02:20:40.079Z,0.47
2019-02-12T02:23:08.871Z,0.87
2019-02-12T02:25:37.574Z,0.50
2019-02-12T02:28:06.336Z,0.70
2019-02-12T02:30:35.116Z,0.90
2019-02-12T02:33:04.033Z,0.63
2019-02-12T02:35:32.753Z,0.90
2019-02-12T02:38:01.470Z,0.87
2019-02-12T02:40:30.337Z,0.90
2019-02-12T02:42:59.056Z,0.50
2019-02-12T02:45:27.864Z,0.60
2019-02-12T02:47:56.559Z,0.57
2019-02-12T02:50:25.296Z,0.87
2019-02-12T02:52:54.010Z,0.80
2019-02-12T02:55:22.825Z,0.90
2019-02-12T02:57:51.540Z,0.70
2019-02-12T03:00:20.313Z,0.77
2019-02-12T03:02:49.103Z,0.67
2019-02-12T03:05:17.892Z,0.70
2019-02-12T03:07:46.621Z,0.63
2019-02-12T03:10:15.377Z,1.30
2019-02-12T03:12:44.166Z,0.87
2019-02-12T03:15:12.957Z,0.80
2019-02-12T03:17:41.658Z,0.80
2019-02-12T03:20:11.023Z,0.70
2019-02-12T03:22:39.819Z,0.50
2019-02-12T03:25:08.882Z,0.60
2019-02-12T03:27:37.681Z,0.90
2019-02-12T03:30:06.640Z,1.03
2019-02-12T03:32:35.415Z,0.50
2019-02-12T03:35:04.781Z,0.80
2019-02-12T03:37:33.567Z,1.03
2019-02-12T03:40:02.371Z,0.60
2019-02-12T03:42:31.165Z,0.83
2019-02-12T03:44:59.955Z,0.70
2019-02-12T03:47:28.726Z,1.13
2019-02-12T03:49:57.454Z,0.60
2019-02-12T03:52:26.180Z,0.67
2019-02-12T03:54:55.039Z,0.60
2019-02-12T03:57:23.871Z,0.60
2019-02-12T03:59:52.656Z,0.70
2019-02-12T04:02:21.348Z,0.53
2019-02-12T04:04:50.060Z,0.60
2019-02-12T04:07:18.833Z,0.80
2019-02-12T04:09:47.555Z,0.70
2019-02-12T04:12:16.365Z,0.60
2019-02-12T04:14:45.103Z,0.50
2019-02-12T04:17:13.928Z,0.40
2019-02-12T04:19:42.685Z,0.50
2019-02-12T04:22:11.448Z,1.03
2019-02-12T04:24:40.220Z,0.77
2019-02-12T04:27:09.020Z,0.53
2019-02-12T04:29:37.833Z,0.50
2019-02-12T04:32:06.577Z,0.77
2019-02-12T04:34:35.280Z,0.93
2019-02-12T04:37:04.050Z,0.67
2019-02-12T04:39:32.755Z,0.67
2019-02-12T04:42:01.489Z,0.90
2019-02-12T04:44:30.223Z,1.00
2019-02-12T04:46:59.075Z,0.73
2019-02-12T04:49:27.869Z,0.80
2019-02-12T04:51:56.590Z,0.73
2019-02-12T04:54:25.389Z,0.80
2019-02-12T04:56:54.132Z,1.23
2019-02-12T04:59:22.828Z,1.17
2019-02-12T05:01:51.581Z,0.67
2019-02-12T05:04:20.398Z,0.80
2019-02-12T05:06:49.148Z,0.70
2019-02-12T05:09:21.224Z,1.03
2019-02-12T05:11:51.361Z,0.70
2019-02-12T05:14:20.175Z,0.90
2019-02-12T05:16:48.965Z,0.90
2019-02-12T05:19:17.709Z,0.93
2019-02-12T05:21:46.508Z,0.63
2019-02-12T05:24:15.227Z,1.30
2019-02-12T05:26:44.035Z,1.07
2019-02-12T05:29:12.748Z,1.20
2019-02-12T05:31:41.531Z,1.00
2019-02-12T05:34:10.343Z,1.10
2019-02-12T05:36:39.223Z,1.53
2019-02-12T05:39:08.102Z,0.63
2019-02-12T05:41:36.965Z,0.90
2019-02-12T05:44:05.762Z,0.90
2019-02-12T05:46:34.516Z,1.00
2019-02-12T05:49:03.331Z,1.07
2019-02-12T05:51:32.164Z,0.60
2019-02-12T05:54:01.022Z,1.13
2019-02-12T05:56:29.810Z,1.57
2019-02-12T05:59:00.732Z,0.83
2019-02-12T06:01:29.564Z,1.40
2019-02-12T06:03:58.534Z,1.07
2019-02-12T06:06:27.279Z,0.83
2019-02-12T06:08:56.100Z,2.03
2019-02-12T06:11:24.842Z,1.10
2019-02-12T06:13:53.641Z,0.93
2019-02-12T06:16:22.408Z,0.93
2019-02-12T06:18:51.233Z,0.70
2019-02-12T06:21:20.021Z,1.17
2019-02-12T06:23:48.862Z,1.20
2019-02-12T06:26:17.653Z,1.07
2019-02-12T06:28:46.440Z,1.70
2019-02-12T06:31:15.200Z,0.90
2019-02-12T06:33:43.993Z,1.07
2019-02-12T06:36:12.819Z,1.37
2019-02-12T06:38:41.588Z,0.90
2019-02-12T06:41:10.494Z,1.47
2019-02-12T06:43:39.229Z,1.10
2019-02-12T06:46:07.935Z,2.33
2019-02-12T06:48:36.673Z,1.13
2019-02-12T06:51:05.448Z,1.33
2019-02-12T06:53:34.311Z,0.93
2019-02-12T06:56:03.081Z,1.60
2019-02-12T06:58:31.834Z,1.50
2019-02-12T07:01:03.717Z,0.90
2019-02-12T07:03:46.147Z,1.50
2019-02-12T07:06:18.112Z,1.10
2019-02-12T07:09:08.193Z,1.00
2019-02-12T07:12:02.170Z,2.10
2019-02-12T07:14:36.684Z,2.40
2019-02-12T07:17:13.490Z,2.47
2019-02-12T07:19:52.271Z,1.73
2019-02-12T07:22:27.187Z,1.47
2019-02-12T07:25:15.124Z,1.57
2019-02-12T07:28:06.030Z,1.53
2019-02-12T07:30:41.064Z,1.47
2019-02-12T07:33:31.224Z,1.87
2019-02-12T07:36:10.276Z,0.97
2019-02-12T07:38:58.181Z,1.10
2019-02-12T07:41:52.395Z,1.13
2019-02-12T07:44:40.287Z,1.30
2019-02-12T07:47:21.390Z,2.03
2019-02-12T07:50:18.493Z,1.20
2019-02-12T07:52:57.427Z,1.53
2019-02-12T07:55:54.274Z,1.40
2019-02-12T07:58:41.285Z,1.33
2019-02-12T08:01:29.193Z,1.23
2019-02-12T08:04:15.856Z,0.87
2019-02-12T08:07:12.868Z,1.37
2019-02-12T08:10:02.080Z,8.63
2019-02-12T08:12:36.097Z,2.57
2019-02-12T08:15:11.364Z,1.20
2019-02-12T08:17:48.249Z,1.17
2019-02-12T08:20:42.112Z,1.07
2019-02-12T08:23:41.082Z,1.83
2019-02-12T08:26:15.749Z,1.27
2019-02-12T08:29:09.692Z,1.67
2019-02-12T08:31:57.671Z,1.80
2019-02-12T08:34:41.536Z,1.23
2019-02-12T08:37:32.829Z,1.87
2019-02-12T08:40:19.540Z,1.40
2019-02-12T08:43:10.461Z,1.60
2019-02-12T08:45:47.215Z,1.67
2019-02-12T08:48:28.696Z,1.37
2019-02-12T08:51:25.988Z,1.20
2019-02-12T08:54:12.751Z,1.47
2019-02-12T08:56:45.823Z,0.90
2019-02-12T08:59:29.665Z,1.47
2019-02-12T09:02:16.179Z,1.30
2019-02-12T09:05:19.232Z,1.40
2019-02-12T09:07:51.861Z,1.57
2019-02-12T09:10:51.767Z,0.87
2019-02-12T09:13:48.905Z,1.20
2019-02-12T09:16:25.725Z,1.17
2019-02-12T09:19:01.328Z,1.30
2019-02-12T09:21:55.210Z,1.23
2019-02-12T09:24:42.139Z,0.90
2019-02-12T09:27:23.353Z,1.40
2019-02-12T09:29:55.664Z,1.23
2019-02-12T09:32:39.697Z,1.30
2019-02-12T09:35:16.876Z,0.90
2019-02-12T09:38:07.562Z,1.80
2019-02-12T09:40:39.665Z,1.10
2019-02-12T09:43:39.451Z,1.10
2019-02-12T09:46:27.288Z,1.00
2019-02-12T09:49:03.679Z,1.03
2019-02-12T09:51:37.065Z,1.27
2019-02-12T09:54:21.022Z,1.30
2019-02-12T09:57:08.919Z,1.40
2019-02-12T10:00:14.950Z,0.97
2019-02-12T10:03:11.480Z,1.30
2019-02-12T10:06:05.559Z,1.50
2019-02-12T10:09:11.874Z,1.43
2019-02-12T10:12:05.554Z,1.07
2019-02-12T10:14:41.236Z,1.60
2019-02-12T10:17:12.956Z,1.47
2019-02-12T10:19:49.786Z,1.37
2019-02-12T10:22:37.689Z,2.30
2019-02-12T10:25:40.156Z,1.37
2019-02-12T10:28:34.001Z,1.47
2019-02-12T10:31:07.799Z,1.00
2019-02-12T10:33:36.626Z,1.13
2019-02-12T10:36:05.410Z,1.70
2019-02-12T10:38:34.130Z,1.47
2019-02-12T10:41:03.127Z,0.77
2019-02-12T10:43:31.932Z,1.23
2019-02-12T10:46:00.784Z,1.30
2019-02-12T10:48:29.576Z,1.20
2019-02-12T10:50:58.288Z,0.97
2019-02-12T10:53:27.060Z,1.00
2019-02-12T10:55:56.026Z,2.07
2019-02-12T10:58:24.838Z,1.27
2019-02-12T11:00:53.653Z,1.50
2019-02-12T11:03:22.476Z,1.47
2019-02-12T11:05:51.266Z,1.50
2019-02-12T11:08:21.895Z,1.03
2019-02-12T11:10:52.044Z,1.60
2019-02-12T11:13:20.843Z,0.90
2019-02-12T11:15:49.595Z,1.20
2019-02-12T11:18:18.330Z,1.10
2019-02-12T11:20:47.113Z,1.33
2019-02-12T11:23:15.905Z,1.27
2019-02-12T11:25:44.707Z,1.03
2019-02-12T11:28:13.414Z,1.40
2019-02-12T11:30:42.149Z,1.60
2019-02-12T11:33:10.954Z,1.30
2019-02-12T11:35:39.650Z,1.10
2019-02-12T11:38:08.489Z,1.23
2019-02-12T11:40:38.720Z,0.90
2019-02-12T11:43:07.598Z,1.10
2019-02-12T11:45:36.422Z,1.67
2019-02-12T11:48:05.194Z,0.97
2019-02-12T11:50:34.034Z,1.07
2019-02-12T11:53:02.861Z,1.57
2019-02-12T11:55:31.878Z,1.07
2019-02-12T11:58:00.613Z,0.70
2019-02-12T12:00:34.967Z,0.83
2019-02-12T12:03:03.766Z,0.83
2019-02-12T12:05:32.478Z,1.17
2019-02-12T12:08:01.195Z,1.10
2019-02-12T12:10:30.025Z,0.87
2019-02-12T12:12:58.796Z,1.17
2019-02-12T12:15:27.602Z,0.83
2019-02-12T12:17:56.332Z,1.47
2019-02-12T12:20:25.100Z,0.90
2019-02-12T12:22:53.825Z,1.00
2019-02-12T12:25:22.556Z,1.30
2019-02-12T12:27:51.288Z,1.10
2019-02-12T12:30:20.001Z,1.30
2019-02-12T12:32:48.798Z,0.93
2019-02-12T12:35:17.793Z,1.00
2019-02-12T12:37:46.660Z,0.90
2019-02-12T12:40:15.457Z,0.70
2019-02-12T12:42:44.182Z,1.17
2019-02-12T12:45:13.573Z,1.40
2019-02-12T12:47:42.326Z,0.70
2019-02-12T12:50:11.140Z,1.07
2019-02-12T12:52:39.940Z,1.13
2019-02-12T12:55:08.757Z,1.20
2019-02-12T12:57:42.087Z,1.27
2019-02-12T13:00:08.967Z,0.70
2019-02-12T13:02:37.759Z,1.03
2019-02-12T13:05:07.133Z,1.50
2019-02-12T13:07:35.925Z,1.33
2019-02-12T13:10:05.199Z,1.37
2019-02-12T13:12:33.954Z,1.30
2019-02-12T13:15:02.685Z,0.90
2019-02-12T13:17:31.514Z,1.00
2019-02-12T13:20:00.305Z,1.10
2019-02-12T13:22:29.039Z,1.30
2019-02-12T13:24:57.796Z,0.90
2019-02-12T13:27:26.581Z,1.23
2019-02-12T13:29:55.376Z,1.33
2019-02-12T13:32:24.159Z,2.37
2019-02-12T13:34:52.923Z,0.87
2019-02-12T13:37:21.696Z,0.77
2019-02-12T13:39:51.721Z,0.47
2019-02-12T13:42:20.511Z,1.00
2019-02-12T13:44:49.341Z,0.90
2019-02-12T13:47:18.111Z,0.57
2019-02-12T13:49:47.243Z,0.80
2019-02-12T13:52:16.025Z,0.93
2019-02-12T13:54:44.837Z,0.70
2019-02-12T13:57:16.642Z,0.90
2019-02-12T13:59:45.491Z,0.60
2019-02-12T14:02:14.207Z,1.00
2019-02-12T14:04:42.943Z,0.67
2019-02-12T14:07:11.691Z,1.00
2019-02-12T14:09:40.491Z,1.00
2019-02-12T14:12:09.264Z,0.80
2019-02-12T14:14:38.026Z,0.80
2019-02-12T14:17:06.913Z,0.40
2019-02-12T14:19:35.860Z,0.97
2019-02-12T14:22:04.668Z,0.70
2019-02-12T14:24:33.504Z,0.67
2019-02-12T14:27:07.638Z,1.03
2019-02-12T14:29:36.343Z,0.53
2019-02-12T14:32:05.046Z,0.80
2019-02-12T14:34:33.830Z,0.90
2019-02-12T14:37:05.423Z,1.03
2019-02-12T14:39:40.424Z,0.80
2019-02-12T14:42:09.168Z,1.17
2019-02-12T14:44:37.953Z,0.90
2019-02-12T14:47:06.784Z,0.87
2019-02-12T14:49:35.758Z,0.80
2019-02-12T14:52:04.570Z,1.00
2019-02-12T14:54:33.413Z,1.33
2019-02-12T14:57:02.261Z,0.87
2019-02-12T14:59:31.055Z,1.00
2019-02-12T15:01:59.833Z,1.07
2019-02-12T15:04:28.631Z,1.17
2019-02-12T15:06:57.426Z,1.20
2019-02-12T15:09:26.292Z,1.00
2019-02-12T15:11:55.182Z,1.10
2019-02-12T15:14:23.904Z,0.87
2019-02-12T15:16:52.693Z,0.93
2019-02-12T15:19:21.418Z,1.17
2019-02-12T15:21:50.165Z,1.20
2019-02-12T15:24:18.964Z,1.03
2019-02-12T15:26:47.694Z,0.80
2019-02-12T15:29:16.451Z,0.80
2019-02-12T15:31:45.271Z,1.30
2019-02-12T15:34:14.531Z,0.97
2019-02-12T15:36:43.318Z,0.80
2019-02-12T15:39:12.292Z,1.50
2019-02-12T15:41:41.078Z,1.30
2019-02-12T15:44:09.839Z,1.13
2019-02-12T15:46:38.604Z,1.07
2019-02-12T15:49:07.416Z,3.80
2019-02-12T15:51:36.120Z,1.80
2019-02-12T15:54:04.864Z,1.27
2019-02-12T15:56:33.626Z,1.90
2019-02-12T15:59:03.121Z,1.33
2019-02-12T16:01:31.964Z,1.03
2019-02-12T16:04:00.740Z,1.07
2019-02-12T16:06:29.516Z,1.00
2019-02-12T16:08:58.305Z,0.97
2019-02-12T16:11:27.071Z,1.20
2019-02-12T16:13:56.746Z,1.60
2019-02-12T16:16:27.986Z,1.47
2019-02-12T16:18:56.912Z,1.00
2019-02-12T16:21:25.647Z,1.10
2019-02-12T16:23:54.460Z,1.73
2019-02-12T16:26:23.277Z,1.23
2019-02-12T16:28:52.166Z,1.23
2019-02-12T16:31:20.945Z,1.53
2019-02-12T16:33:49.700Z,1.30
2019-02-12T16:36:18.537Z,1.00
2019-02-12T16:38:48.924Z,1.30
2019-02-12T16:41:17.922Z,1.17
2019-02-12T16:43:46.843Z,1.50
2019-02-12T16:46:17.396Z,1.27
2019-02-12T16:48:46.314Z,0.97
2019-02-12T16:51:15.662Z,1.50
2019-02-12T16:53:44.423Z,1.00
2019-02-12T16:56:13.196Z,6.93
2019-02-12T16:58:41.907Z,1.70
2019-02-12T17:01:10.729Z,1.67
2019-02-12T17:03:39.597Z,1.67
2019-02-12T17:06:08.812Z,1.60
2019-02-12T17:08:37.606Z,1.07
2019-02-12T17:11:06.349Z,1.33
2019-02-12T17:13:35.233Z,1.93
2019-02-12T17:16:04.071Z,1.10
2019-02-12T17:18:32.880Z,1.53
2019-02-12T17:21:01.635Z,1.30
2019-02-12T17:23:33.763Z,1.47
2019-02-12T17:26:02.595Z,1.70
2019-02-12T17:28:31.452Z,1.80
2019-02-12T17:31:00.193Z,1.77
2019-02-12T17:33:29.032Z,1.40
2019-02-12T17:35:57.819Z,1.60
2019-02-12T17:38:26.607Z,1.73
2019-02-12T17:40:55.362Z,1.60
2019-02-12T17:43:24.698Z,1.20
2019-02-12T17:45:53.440Z,1.50
2019-02-12T17:48:22.277Z,1.63
2019-02-12T17:50:51.129Z,1.50
2019-02-12T17:53:20.097Z,1.50
2019-02-12T17:55:49.275Z,1.50
2019-02-12T17:58:18.311Z,1.60
2019-02-12T18:00:47.068Z,2.33
2019-02-12T18:03:15.873Z,3.30
2019-02-12T18:05:45.313Z,2.20
2019-02-12T18:08:14.171Z,1.97
2019-02-12T18:10:43.019Z,2.17
2019-02-12T18:13:12.037Z,1.43
2019-02-12T18:15:42.320Z,1.67
2019-02-12T18:18:11.108Z,2.20
2019-02-12T18:20:39.946Z,1.37
2019-02-12T18:23:09.070Z,1.30
2019-02-12T18:25:41.025Z,1.83
2019-02-12T18:28:09.928Z,1.57
2019-02-12T18:30:38.687Z,1.43
2019-02-12T18:33:07.519Z,2.50
2019-02-12T18:35:36.460Z,1.90
2019-02-12T18:38:05.337Z,2.53
2019-02-12T18:40:34.240Z,2.60
2019-02-12T18:43:03.155Z,2.93
2019-02-12T18:45:34.322Z,2.97
2019-02-12T18:48:03.379Z,2.83
2019-02-12T18:50:32.269Z,3.37
2019-02-12T18:53:01.096Z,2.77
2019-02-12T18:55:35.210Z,3.60
2019-02-12T18:58:04.475Z,3.03
2019-02-12T19:00:33.415Z,3.27
2019-02-12T19:03:03.459Z,3.57
2019-02-12T19:05:37.183Z,3.47
2019-02-12T19:08:05.810Z,3.10
2019-02-12T19:10:34.637Z,3.50
2019-02-12T19:13:03.460Z,3.47
2019-02-12T19:15:36.968Z,3.30
2019-02-12T19:18:14.216Z,3.67
2019-02-12T19:20:43.134Z,3.53
2019-02-12T19:23:11.897Z,3.70
2019-02-12T19:25:40.771Z,3.33
2019-02-12T19:28:09.613Z,3.57
2019-02-12T19:30:38.525Z,3.83
2019-02-12T19:33:07.406Z,4.27
2019-02-12T19:35:36.268Z,4.33
2019-02-12T19:38:05.186Z,4.20
2019-02-12T19:40:34.587Z,3.77
2019-02-12T19:43:05.967Z,4.07
2019-02-12T19:45:34.805Z,4.07
2019-02-12T19:48:06.807Z,4.97
2019-02-12T19:50:35.783Z,4.73
2019-02-12T19:53:04.922Z,6.67
2019-02-12T19:55:34.249Z,5.00
2019-02-12T19:58:03.518Z,5.83
2019-02-12T20:00:32.413Z,5.50
2019-02-12T20:03:03.445Z,5.83
2019-02-12T20:05:32.598Z,6.13
2019-02-12T20:08:01.667Z,6.03
2019-02-12T20:10:30.974Z,7.30
2019-02-12T20:12:59.915Z,6.77
2019-02-12T20:15:28.923Z,7.53
2019-02-12T20:17:57.910Z,6.70
2019-02-12T20:20:29.215Z,6.63
2019-02-12T20:22:59.557Z,5.77
2019-02-12T20:25:28.470Z,6.57
2019-02-12T20:28:00.447Z,5.53
2019-02-12T20:30:33.640Z,5.50
2019-02-12T20:33:02.624Z,6.37
2019-02-12T20:35:36.521Z,7.17
2019-02-12T20:38:02.605Z,6.33
2019-02-12T20:40:34.914Z,6.17
2019-02-12T20:43:03.861Z,6.57
2019-02-12T20:45:36.159Z,6.17
2019-02-12T20:48:05.099Z,6.70
2019-02-12T20:50:34.026Z,6.53
2019-02-12T20:53:03.137Z,6.57
2019-02-12T20:55:32.057Z,6.53
2019-02-12T20:58:01.048Z,5.70
2019-02-12T21:00:30.049Z,6.77
2019-02-12T21:03:05.207Z,6.10
2019-02-12T21:05:34.069Z,6.43
2019-02-12T21:08:05.283Z,7.00
2019-02-12T21:10:34.179Z,6.70
2019-02-12T21:13:05.484Z,7.07
2019-02-12T21:15:34.235Z,6.70
2019-02-12T21:18:04.365Z,7.07
2019-02-12T21:20:33.140Z,6.67
2019-02-12T21:23:01.970Z,6.67
2019-02-12T21:25:30.779Z,6.80
2019-02-12T21:27:59.612Z,6.87
2019-02-12T21:30:28.532Z,7.13
2019-02-12T21:32:58.663Z,6.87
2019-02-12T21:35:27.482Z,7.33
2019-02-12T21:37:56.488Z,7.27
2019-02-12T21:40:25.381Z,6.83
2019-02-12T21:42:54.185Z,7.23
2019-02-12T21:45:23.032Z,7.67
2019-02-12T21:47:51.871Z,5.53
2019-02-12T21:50:20.722Z,8.30
2019-02-12T21:52:49.569Z,7.07
2019-02-12T21:55:18.477Z,6.67
2019-02-12T21:57:47.389Z,6.20
2019-02-12T22:00:16.387Z,6.03
2019-02-12T22:02:45.162Z,6.63
2019-02-12T22:05:14.396Z,6.13
2019-02-12T22:07:43.132Z,6.93
2019-02-12T22:10:13.000Z,6.50
2019-02-12T22:12:41.733Z,7.13
2019-02-12T22:15:12.441Z,6.60
2019-02-12T22:17:41.530Z,7.27
2019-02-12T22:20:11.245Z,7.07
2019-02-12T22:22:40.141Z,5.87
2019-02-12T22:25:08.972Z,6.23
2019-02-12T22:27:40.379Z,6.03
2019-02-12T22:30:10.196Z,6.40
2019-02-12T22:32:39.023Z,6.13
2019-02-12T22:35:07.898Z,6.70
2019-02-12T22:37:36.721Z,6.27
2019-02-12T22:40:05.885Z,7.37
2019-02-12T22:42:34.619Z,6.83
2019-02-12T22:45:03.368Z,6.83
2019-02-12T22:47:32.199Z,6.83
2019-02-12T22:50:00.964Z,7.77
2019-02-12T22:52:29.690Z,7.47
2019-02-12T22:54:58.443Z,8.07
2019-02-12T22:57:27.201Z,6.93
2019-02-12T22:59:56.103Z,6.53
2019-02-12T23:02:24.912Z,7.53
2019-02-12T23:04:53.674Z,7.30
2019-02-12T23:07:22.556Z,7.83
2019-02-12T23:09:51.364Z,8.57
2019-02-12T23:12:20.068Z,7.30
2019-02-12T23:14:48.873Z,8.60
2019-02-12T23:17:17.620Z,7.57
2019-02-12T23:19:46.457Z,7.60
2019-02-12T23:22:15.173Z,6.93
2019-02-12T23:24:43.900Z,8.57
2019-02-12T23:27:12.763Z,7.63
2019-02-12T23:29:41.608Z,8.47
2019-02-12T23:32:12.490Z,8.00
2019-02-12T23:34:41.338Z,8.23
2019-02-12T23:37:10.100Z,7.50
2019-02-12T23:39:38.956Z,7.60
2019-02-12T23:42:07.855Z,8.80
2019-02-12T23:44:36.664Z,8.27
2019-02-12T23:47:05.447Z,8.20
2019-02-12T23:49:34.221Z,7.83
2019-02-12T23:52:03.022Z,7.60
2019-02-12T23:54:31.757Z,7.60
2019-02-12T23:57:00.510Z,7.73
2019-02-12T23:59:29.303Z,8.30
